Masonic Home, Kentucky
Current Conditions -  °F | °C
As of 10:56 AM on Thursday 27 Nov 2014 (Local Time) from KSDF Reporting Station
Broken Clouds Broken Clouds  
Wind Chill: 26°   Ceiling: 2600
Heat Index: 33°   Visibility: 9mi
Dew Point: 24°   Wind: 8mph
Humidity: 70%   Direction: 320°NW
Pressure: 30.35"   Gusts: NA
Location:  38.25°N, 85.76°W
Report Text: KSDF 271556Z 32007KT 9SM BKN026 01/M04 A3035 RMK AO2 SLP281 T00061044
Loading
Personal Weather Stations






























Interactive Weather Map New forecast layout! Learn more

10-Day Weather Forecast

Advertisements
Track Severe Weather on mobile